Time;durP1;ratioP1;P1;durP2;ratioP2;P2;SDS_P1;SDS_P2;PMS_P1;PMS_P2;Temp;Humidity;BMP_temperature;BMP_pressure;BME280_temperature;BME280_humidity;BME280_pressure;Samples;Min_cycle;Max_cycle;Signal;HPM_P1;HPM_P2
2022/09/23 00:00:43;;;;;;;4.65;2.05;;;;;;;;;;5093126;28;20064;-70
2022/09/23 00:03:10;;;;;;;3.20;1.90;;;;;;;;;;5093268;28;20064;-70
2022/09/23 00:05:38;;;;;;;3.67;2.30;;;;;;;;;;5093211;28;20090;-71
2022/09/23 00:08:06;;;;;;;3.10;2.08;;;;;;;;;;5093053;28;20116;-70
2022/09/23 00:10:35;;;;;;;4.45;3.10;;;;;;;;;;5093250;28;20123;-71
2022/09/23 00:13:04;;;;;;;5.43;2.20;;;;;;;;;;5093171;28;20040;-70
2022/09/23 00:15:32;;;;;;;3.38;2.22;;;;;;;;;;5093095;28;20060;-70
2022/09/23 00:18:00;;;;;;;3.67;2.03;;;;;;;;;;5093113;28;20040;-71
2022/09/23 00:20:27;;;;;;;4.18;2.08;;;;;;;;;;5093006;28;20055;-70
2022/09/23 00:22:56;;;;;;;3.78;2.20;;;;;;;;;;5093019;28;20059;-70
2022/09/23 00:25:24;;;;;;;3.00;1.90;;;;;;;;;;5092902;28;20068;-71
2022/09/23 00:27:51;;;;;;;4.18;2.20;;;;;;;;;;5092928;28;20040;-71
2022/09/23 00:30:18;;;;;;;4.40;2.15;;;;;;;;;;5092801;28;20122;-71
2022/09/23 00:32:46;;;;;;;3.22;2.20;;;;;;;;;;5092827;28;20040;-71
2022/09/23 00:35:13;;;;;;;6.00;2.33;;;;;;;;;;5092828;28;20076;-70
2022/09/23 00:37:41;;;;;;;2.97;2.28;;;;;;;;;;5092854;28;20497;-71
2022/09/23 00:40:11;;;;;;;3.47;2.25;;;;;;;;;;5092727;28;20454;-71
2022/09/23 00:42:45;;;;;;;3.35;2.40;;;;;;;;;;5092731;28;20060;-71
2022/09/23 00:45:13;;;;;;;2.72;2.25;;;;;;;;;;5092550;28;20048;-71
2022/09/23 00:48:02;;;;;;;4.85;2.30;;;;;;;;;;5092687;28;20485;-71
2022/09/23 00:50:34;;;;;;;3.67;2.13;;;;;;;;;;5092890;28;20052;-70
2022/09/23 00:53:08;;;;;;;4.32;2.40;;;;;;;;;;5092677;28;20032;-70
2022/09/23 00:55:41;;;;;;;6.28;2.30;;;;;;;;;;5092605;28;20040;-70
2022/09/23 00:58:11;;;;;;;4.82;2.28;;;;;;;;;;5092525;28;20524;-70
2022/09/23 01:00:39;;;;;;;4.95;2.10;;;;;;;;;;5092869;28;20048;-70
2022/09/23 01:03:08;;;;;;;2.72;2.10;;;;;;;;;;5091390;28;20044;-70
2022/09/23 01:05:37;;;;;;;4.90;2.17;;;;;;;;;;5094899;28;20048;-72
2022/09/23 01:08:04;;;;;;;6.20;2.40;;;;;;;;;;5096537;28;20126;-71
2022/09/23 01:10:47;;;;;;;3.97;2.40;;;;;;;;;;5096420;28;20044;-72
2022/09/23 01:13:33;;;;;;;4.03;2.20;;;;;;;;;;5096456;28;20435;-71
2022/09/23 01:16:01;;;;;;;3.53;2.22;;;;;;;;;;5096391;28;20127;-72
2022/09/23 01:18:34;;;;;;;4.43;2.35;;;;;;;;;;5096441;28;20121;-71
2022/09/23 01:21:01;;;;;;;3.40;2.28;;;;;;;;;;5096350;28;20058;-69
2022/09/23 01:23:47;;;;;;;5.20;2.38;;;;;;;;;;5094984;28;20556;-71
2022/09/23 01:26:21;;;;;;;3.70;2.20;;;;;;;;;;5095001;28;20040;-71
2022/09/23 01:28:56;;;;;;;3.13;2.03;;;;;;;;;;5096093;28;20039;-71
2022/09/23 01:31:35;;;;;;;3.47;2.20;;;;;;;;;;5096058;28;20044;-72
2022/09/23 01:34:09;;;;;;;4.53;2.60;;;;;;;;;;5094860;28;20074;-72
2022/09/23 01:36:42;;;;;;;4.53;2.58;;;;;;;;;;5095972;28;20073;-71
2022/09/23 01:39:18;;;;;;;6.55;2.45;;;;;;;;;;5096032;28;20036;-72
2022/09/23 01:41:55;;;;;;;5.13;2.55;;;;;;;;;;5095896;28;20048;-72
2022/09/23 01:44:29;;;;;;;3.97;2.28;;;;;;;;;;5095862;28;20067;-72
2022/09/23 01:46:59;;;;;;;4.68;2.50;;;;;;;;;;5095738;28;20102;-72
2022/09/23 01:49:46;;;;;;;3.95;2.42;;;;;;;;;;5095913;28;20048;-71
2022/09/23 01:52:25;;;;;;;4.03;2.58;;;;;;;;;;5095364;28;20048;-71
2022/09/23 01:54:56;;;;;;;5.68;3.00;;;;;;;;;;5095499;28;20048;-71
2022/09/23 01:57:30;;;;;;;6.38;3.22;;;;;;;;;;5095739;28;20039;-71
2022/09/23 02:00:13;;;;;;;4.80;3.10;;;;;;;;;;5095536;28;20044;-71
2022/09/23 02:03:14;;;;;;;6.53;3.13;;;;;;;;;;5095633;28;20097;-71
2022/09/23 02:05:52;;;;;;;4.63;2.60;;;;;;;;;;5062308;28;20127;-71
2022/09/23 02:08:37;;;;;;;4.35;2.35;;;;;;;;;;5095477;28;20115;-71
2022/09/23 02:11:10;;;;;;;5.75;3.33;;;;;;;;;;5095394;28;20068;-71
2022/09/23 02:13:59;;;;;;;3.60;2.50;;;;;;;;;;5095396;28;20083;-71
2022/09/23 02:16:43;;;;;;;5.07;2.75;;;;;;;;;;5094877;28;20044;-72
2022/09/23 02:19:13;;;;;;;3.40;2.20;;;;;;;;;;5095288;28;20048;-71
2022/09/23 02:21:43;;;;;;;3.50;2.53;;;;;;;;;;5095179;28;20032;-71
2022/09/23 02:24:13;;;;;;;4.57;2.60;;;;;;;;;;5095252;28;20052;-71
2022/09/23 02:27:01;;;;;;;6.63;2.88;;;;;;;;;;5095053;28;20047;-71
2022/09/23 02:29:32;;;;;;;3.50;2.72;;;;;;;;;;5053717;28;20412;-71
2022/09/23 02:32:26;;;;;;;5.22;2.50;;;;;;;;;;5095011;28;20040;-71
2022/09/23 02:34:56;;;;;;;2.80;2.40;;;;;;;;;;5090596;28;20048;-71
2022/09/23 02:37:27;;;;;;;4.25;2.45;;;;;;;;;;5094944;28;20036;-71
2022/09/23 02:40:13;;;;;;;3.33;2.30;;;;;;;;;;5094962;28;20440;-71
2022/09/23 02:42:40;;;;;;;;;;;;;;;;;;5095180;28;20044;-71
2022/09/23 02:45:08;;;;;;;3.08;2.38;;;;;;;;;;5094778;28;20010;-71
2022/09/23 02:47:38;;;;;;;2.35;2.08;;;;;;;;;;5094695;28;20125;-70
2022/09/23 02:50:06;;;;;;;3.58;2.10;;;;;;;;;;5094621;28;20101;-71
2022/09/23 02:52:35;;;;;;;2.13;1.92;;;;;;;;;;5094773;28;20047;-71
2022/09/23 02:55:03;;;;;;;3.55;2.38;;;;;;;;;;5094466;28;20068;-71
2022/09/23 02:57:31;;;;;;;3.25;2.00;;;;;;;;;;5094549;28;20123;-71
2022/09/23 02:59:58;;;;;;;4.55;2.33;;;;;;;;;;5094414;28;20032;-71
2022/09/23 03:02:32;;;;;;;3.58;2.25;;;;;;;;;;5094416;28;20126;-71
2022/09/23 03:05:03;;;;;;;3.17;2.47;;;;;;;;;;5094502;28;20074;-71
2022/09/23 03:07:31;;;;;;;4.43;2.20;;;;;;;;;;5094298;28;20047;-71
2022/09/23 03:10:18;;;;;;;2.75;2.08;;;;;;;;;;5094336;28;20176;-71
2022/09/23 03:12:51;;;;;;;2.45;2.05;;;;;;;;;;5093030;28;20067;-71
2022/09/23 03:15:19;;;;;;;5.80;2.40;;;;;;;;;;5094273;28;20046;-71
2022/09/23 03:18:03;;;;;;;4.57;2.40;;;;;;;;;;5096220;28;20066;-72
2022/09/23 03:20:34;;;;;;;2.85;2.05;;;;;;;;;;5095202;28;20443;-71
2022/09/23 03:23:03;;;;;;;2.83;2.20;;;;;;;;;;5094189;28;20490;-71
2022/09/23 03:25:33;;;;;;;2.70;2.17;;;;;;;;;;5094081;28;20478;-71
2022/09/23 03:28:02;;;;;;;2.60;2.35;;;;;;;;;;5093260;28;20398;-72
2022/09/23 03:30:34;;;;;;;4.13;2.30;;;;;;;;;;5092906;28;20393;-72
2022/09/23 03:33:03;;;;;;;2.90;2.40;;;;;;;;;;5093783;28;20454;-72
2022/09/23 03:35:32;;;;;;;3.45;2.55;;;;;;;;;;5093793;28;20036;-72
2022/09/23 03:38:06;;;;;;;3.20;2.35;;;;;;;;;;5093770;28;20047;-71
2022/09/23 03:40:42;;;;;;;4.15;2.80;;;;;;;;;;5093624;28;20399;-70
2022/09/23 03:43:13;;;;;;;3.50;2.38;;;;;;;;;;5093691;28;20040;-71
2022/09/23 03:45:41;;;;;;;5.07;2.58;;;;;;;;;;5092318;28;20474;-71
2022/09/23 03:48:09;;;;;;;3.88;2.47;;;;;;;;;;5093541;28;20066;-71
2022/09/23 03:50:38;;;;;;;5.70;3.03;;;;;;;;;;5093456;28;20040;-71
2022/09/23 03:53:05;;;;;;;7.70;3.60;;;;;;;;;;5093482;28;20039;-70
2022/09/23 03:55:33;;;;;;;4.43;2.40;;;;;;;;;;5093249;28;20074;-70
2022/09/23 03:58:03;;;;;;;4.43;2.70;;;;;;;;;;5093327;28;20086;-70
2022/09/23 04:00:31;;;;;;;5.30;3.00;;;;;;;;;;5093238;28;20040;-71
2022/09/23 04:02:58;;;;;;;5.28;3.00;;;;;;;;;;5093247;28;20512;-71
2022/09/23 04:05:26;;;;;;;3.67;2.60;;;;;;;;;;5093134;28;20543;-72
2022/09/23 04:07:53;;;;;;;6.38;2.80;;;;;;;;;;5093321;28;20064;-72
2022/09/23 04:10:21;;;;;;;8.13;2.92;;;;;;;;;;5093095;28;20362;-71
2022/09/23 04:12:48;;;;;;;6.55;2.70;;;;;;;;;;5093161;28;20044;-72
2022/09/23 04:15:16;;;;;;;5.63;3.08;;;;;;;;;;5093103;28;20036;-72
2022/09/23 04:17:43;;;;;;;4.78;2.72;;;;;;;;;;5093091;28;20124;-72
2022/09/23 04:20:10;;;;;;;4.97;2.92;;;;;;;;;;5091658;28;20047;-71
2022/09/23 04:22:38;;;;;;;4.07;2.60;;;;;;;;;;5093113;28;20165;-72
2022/09/23 04:25:06;;;;;;;4.00;2.80;;;;;;;;;;5091964;28;20044;-72
2022/09/23 04:27:33;;;;;;;6.57;2.78;;;;;;;;;;5092815;28;20115;-72
2022/09/23 04:30:05;;;;;;;5.80;2.97;;;;;;;;;;5092829;28;20119;-72
2022/09/23 04:32:33;;;;;;;12.70;3.28;;;;;;;;;;5092709;28;20044;-72
2022/09/23 04:35:00;;;;;;;7.38;3.28;;;;;;;;;;5092790;28;20044;-72
2022/09/23 04:37:28;;;;;;;13.40;5.45;;;;;;;;;;5092594;28;20098;-72
2022/09/23 04:39:55;;;;;;;15.68;6.20;;;;;;;;;;5092573;28;20127;-74
2022/09/23 04:42:23;;;;;;;11.40;4.65;;;;;;;;;;5092859;28;20433;-73
2022/09/23 04:44:51;;;;;;;7.65;3.70;;;;;;;;;;5093082;28;20074;-72
2022/09/23 04:47:18;;;;;;;9.73;3.38;;;;;;;;;;5098669;28;20039;-72
2022/09/23 04:49:46;;;;;;;6.00;3.28;;;;;;;;;;5112936;28;20071;-73
2022/09/23 04:52:15;;;;;;;9.93;4.65;;;;;;;;;;5111706;28;20079;-72
2022/09/23 04:54:42;;;;;;;9.70;4.20;;;;;;;;;;5113058;28;20126;-73
2022/09/23 04:57:12;;;;;;;9.10;5.03;;;;;;;;;;5111892;28;20442;-71
2022/09/23 04:59:40;;;;;;;11.43;5.47;;;;;;;;;;5112863;28;20572;-72
2022/09/23 05:02:07;;;;;;;8.35;4.65;;;;;;;;;;5112804;28;20040;-73
2022/09/23 05:04:36;;;;;;;9.10;4.88;;;;;;;;;;5112874;28;20079;-71
2022/09/23 05:07:03;;;;;;;10.15;5.15;;;;;;;;;;5112797;28;20043;-71
2022/09/23 05:09:31;;;;;;;13.05;5.40;;;;;;;;;;5112775;28;20130;-71
2022/09/23 05:11:58;;;;;;;9.57;5.22;;;;;;;;;;5112789;28;20044;-70
2022/09/23 05:14:26;;;;;;;10.68;5.90;;;;;;;;;;5112604;28;20552;-70
2022/09/23 05:16:53;;;;;;;12.88;6.00;;;;;;;;;;5112791;28;20040;-71
2022/09/23 05:19:21;;;;;;;12.93;6.25;;;;;;;;;;5112638;28;20040;-72
2022/09/23 05:21:48;;;;;;;15.90;6.25;;;;;;;;;;5112982;28;20047;-71
2022/09/23 05:24:16;;;;;;;13.48;5.72;;;;;;;;;;5112677;28;20040;-70
2022/09/23 05:26:43;;;;;;;17.35;6.05;;;;;;;;;;5112800;28;20050;-71
2022/09/23 05:29:10;;;;;;;7.90;4.47;;;;;;;;;;5112593;28;20063;-72
2022/09/23 05:31:38;;;;;;;9.60;5.00;;;;;;;;;;5112506;28;20035;-70
2022/09/23 05:34:06;;;;;;;10.20;5.10;;;;;;;;;;5112851;28;20063;-69
2022/09/23 05:36:34;;;;;;;8.32;4.65;;;;;;;;;;5112578;28;20043;-71
2022/09/23 05:39:06;;;;;;;10.52;4.20;;;;;;;;;;5112091;28;20039;-72
2022/09/23 05:41:34;;;;;;;9.20;4.60;;;;;;;;;;5098363;28;20093;-71
2022/09/23 05:44:01;;;;;;;7.65;4.55;;;;;;;;;;5101700;28;20035;-71
2022/09/23 05:46:30;;;;;;;6.85;4.03;;;;;;;;;;5102612;28;20035;-73
2022/09/23 05:48:58;;;;;;;13.77;7.05;;;;;;;;;;5099972;28;20047;-72
2022/09/23 05:51:30;;;;;;;8.60;5.80;;;;;;;;;;5093755;28;20059;-71
2022/09/23 05:53:58;;;;;;;8.45;4.97;;;;;;;;;;5095539;28;20048;-72
2022/09/23 05:56:27;;;;;;;7.40;4.35;;;;;;;;;;5098961;28;20423;-71
2022/09/23 05:58:56;;;;;;;6.88;4.95;;;;;;;;;;5103775;28;20046;-71
2022/09/23 06:01:25;;;;;;;5.70;4.30;;;;;;;;;;5115360;28;20036;-72
2022/09/23 06:03:53;;;;;;;14.27;5.03;;;;;;;;;;5115620;28;20139;-71
2022/09/23 06:06:24;;;;;;;10.73;6.18;;;;;;;;;;5115903;28;20056;-70
2022/09/23 06:08:52;;;;;;;8.25;5.82;;;;;;;;;;5115826;28;20043;-71
2022/09/23 06:11:20;;;;;;;16.50;6.57;;;;;;;;;;5115833;28;20042;-71
2022/09/23 06:13:49;;;;;;;5.55;4.80;;;;;;;;;;5115826;28;20074;-71
2022/09/23 06:16:16;;;;;;;6.30;4.85;;;;;;;;;;5115586;28;20122;-71
2022/09/23 06:18:44;;;;;;;97.78;9.02;;;;;;;;;;5115590;28;20039;-71
2022/09/23 06:21:15;;;;;;;5.50;4.13;;;;;;;;;;5115510;28;20039;-71
2022/09/23 06:23:43;;;;;;;6.25;4.60;;;;;;;;;;5115596;28;20031;-71
2022/09/23 06:26:12;;;;;;;16.73;5.85;;;;;;;;;;5115391;28;20140;-71
2022/09/23 06:28:40;;;;;;;14.13;4.75;;;;;;;;;;5115453;28;20046;-71
2022/09/23 06:31:10;;;;;;;23.00;6.35;;;;;;;;;;5115469;28;20050;-71
2022/09/23 06:33:41;;;;;;;6.45;4.63;;;;;;;;;;5115349;28;20142;-72
2022/09/23 06:36:09;;;;;;;9.38;4.75;;;;;;;;;;5115252;28;20036;-71
2022/09/23 06:38:40;;;;;;;17.27;5.10;;;;;;;;;;5097070;28;20116;-71
2022/09/23 06:41:08;;;;;;;7.68;4.72;;;;;;;;;;5114984;28;20487;-72
2022/09/23 06:43:35;;;;;;;12.43;6.22;;;;;;;;;;5115121;28;20075;-72
2022/09/23 06:46:04;;;;;;;12.13;4.90;;;;;;;;;;5114982;28;20036;-72
2022/09/23 06:48:34;;;;;;;5.80;4.00;;;;;;;;;;5115035;28;20035;-71
2022/09/23 06:51:04;;;;;;;11.02;7.05;;;;;;;;;;5115204;28;20104;-71
2022/09/23 06:53:31;;;;;;;6.18;4.85;;;;;;;;;;5114798;28;20079;-71
2022/09/23 06:56:01;;;;;;;6.63;4.10;;;;;;;;;;5114857;28;20036;-72
2022/09/23 06:58:30;;;;;;;5.93;3.85;;;;;;;;;;5114867;28;20039;-71
2022/09/23 07:01:05;;;;;;;6.63;4.63;;;;;;;;;;5114999;27;20075;-71
2022/09/23 07:03:33;;;;;;;4.97;4.00;;;;;;;;;;5114818;28;20495;-71
2022/09/23 07:06:01;;;;;;;5.40;4.03;;;;;;;;;;5113421;28;20063;-72
2022/09/23 07:08:29;;;;;;;5.03;3.83;;;;;;;;;;5114700;28;20580;-71
2022/09/23 07:10:59;;;;;;;7.20;4.05;;;;;;;;;;5114624;28;20546;-71
2022/09/23 07:13:27;;;;;;;4.80;3.90;;;;;;;;;;5114483;28;20067;-70
2022/09/23 07:15:59;;;;;;;6.32;4.50;;;;;;;;;;5114377;28;20116;-71
2022/09/23 07:18:27;;;;;;;6.68;4.50;;;;;;;;;;5096401;28;20473;-71
2022/09/23 07:21:12;;;;;;;6.38;4.60;;;;;;;;;;5114434;28;20066;-71
2022/09/23 07:23:39;;;;;;;7.47;5.65;;;;;;;;;;5114440;28;20051;-71
2022/09/23 07:26:07;;;;;;;5.55;4.50;;;;;;;;;;5114229;28;20040;-73
2022/09/23 07:28:36;;;;;;;6.38;4.18;;;;;;;;;;5114259;28;20049;-72
2022/09/23 07:31:11;;;;;;;7.72;5.13;;;;;;;;;;5114155;28;20061;-71
2022/09/23 07:33:42;;;;;;;5.72;4.05;;;;;;;;;;5114025;28;20058;-70
2022/09/23 07:36:11;;;;;;;5.60;4.15;;;;;;;;;;5114780;28;20062;-73
2022/09/23 07:38:39;;;;;;;4.85;3.92;;;;;;;;;;5116445;28;20067;-72
2022/09/23 07:41:13;;;;;;;6.40;4.30;;;;;;;;;;5114481;28;20456;-71
2022/09/23 07:43:40;;;;;;;6.88;4.95;;;;;;;;;;5113922;28;20061;-71
2022/09/23 07:46:10;;;;;;;5.93;4.50;;;;;;;;;;5114030;28;20040;-70
2022/09/23 07:48:38;;;;;;;6.03;4.00;;;;;;;;;;5095707;28;20138;-71
2022/09/23 07:51:25;;;;;;;6.22;4.45;;;;;;;;;;5113913;28;20047;-71
2022/09/23 07:53:57;;;;;;;6.47;4.15;;;;;;;;;;5113793;28;20056;-71
2022/09/23 07:56:25;;;;;;;6.57;4.20;;;;;;;;;;5113888;28;20036;-72
2022/09/23 07:58:59;;;;;;;7.78;4.53;;;;;;;;;;5113747;28;20046;-71
2022/09/23 08:01:28;;;;;;;6.93;3.90;;;;;;;;;;5113711;28;20047;-72
2022/09/23 08:03:56;;;;;;;6.13;4.07;;;;;;;;;;5113712;28;20039;-71
2022/09/23 08:06:24;;;;;;;8.13;3.83;;;;;;;;;;5113788;28;20043;-71
2022/09/23 08:08:51;;;;;;;9.32;4.15;;;;;;;;;;5113505;28;20032;-71
2022/09/23 08:11:20;;;;;;;6.78;4.13;;;;;;;;;;5113554;28;20052;-71
2022/09/23 08:13:47;;;;;;;6.70;4.57;;;;;;;;;;5112755;28;20127;-71
2022/09/23 08:16:14;;;;;;;7.88;4.13;;;;;;;;;;5113437;28;20039;-72
2022/09/23 08:18:45;;;;;;;5.50;4.60;;;;;;;;;;5113267;28;20063;-71
2022/09/23 08:21:17;;;;;;;6.82;4.60;;;;;;;;;;5113216;28;20426;-71
2022/09/23 08:23:45;;;;;;;5.85;4.40;;;;;;;;;;5111899;28;20131;-71
2022/09/23 08:26:13;;;;;;;7.35;4.80;;;;;;;;;;5113282;28;20082;-71
2022/09/23 08:28:48;;;;;;;;;;;;;;;;;;5113674;28;20477;-71
2022/09/23 08:31:15;;;;;;;9.02;4.72;;;;;;;;;;5112962;28;20331;-71
2022/09/23 08:33:43;;;;;;;10.32;4.60;;;;;;;;;;5113220;28;20436;-71
2022/09/23 08:36:10;;;;;;;7.68;3.97;;;;;;;;;;5113252;28;20088;-71
2022/09/23 08:38:38;;;;;;;8.32;4.00;;;;;;;;;;5113190;28;20078;-71
2022/09/23 08:41:05;;;;;;;4.72;3.70;;;;;;;;;;5111860;28;20154;-70
2022/09/23 08:43:33;;;;;;;5.75;4.45;;;;;;;;;;5113057;28;20382;-72
2022/09/23 08:46:05;;;;;;;6.30;4.50;;;;;;;;;;5113069;28;20075;-71
2022/09/23 08:48:36;;;;;;;6.75;5.05;;;;;;;;;;5112927;28;20048;-71
2022/09/23 08:51:10;;;;;;;7.32;4.95;;;;;;;;;;5113166;28;20640;-71
2022/09/23 08:53:38;;;;;;;6.35;4.20;;;;;;;;;;5112869;28;20066;-71
2022/09/23 08:56:06;;;;;;;6.32;4.13;;;;;;;;;;5113278;28;20039;-71
2022/09/23 08:58:39;;;;;;;6.88;4.38;;;;;;;;;;5113041;28;20385;-71
2022/09/23 09:01:13;;;;;;;6.40;4.97;;;;;;;;;;5113041;28;20039;-71
2022/09/23 09:03:57;;;;;;;6.45;4.18;;;;;;;;;;5112930;28;20039;-71
2022/09/23 09:06:27;;;;;;;7.18;4.32;;;;;;;;;;5112941;28;20051;-71
2022/09/23 09:08:56;;;;;;;5.47;4.25;;;;;;;;;;5112930;28;20043;-71
2022/09/23 09:11:30;;;;;;;6.00;4.57;;;;;;;;;;5112963;28;20067;-70
2022/09/23 09:14:16;;;;;;;6.55;4.30;;;;;;;;;;5113103;28;20135;-71
2022/09/23 09:16:47;;;;;;;5.60;4.45;;;;;;;;;;5112886;28;20073;-70
2022/09/23 09:19:42;;;;;;;5.38;4.15;;;;;;;;;;5112829;28;20504;-70
2022/09/23 09:22:13;;;;;;;5.20;4.00;;;;;;;;;;5112526;28;20485;-71
2022/09/23 09:24:44;;;;;;;6.88;4.82;;;;;;;;;;5112685;28;20035;-71
2022/09/23 09:27:12;;;;;;;5.00;4.13;;;;;;;;;;5115808;28;20046;-71
2022/09/23 09:29:45;;;;;;;5.80;4.20;;;;;;;;;;5116689;28;20050;-71
2022/09/23 09:32:22;;;;;;;7.95;5.63;;;;;;;;;;5116617;28;20038;-71
2022/09/23 09:34:57;;;;;;;6.22;4.30;;;;;;;;;;5116518;28;20088;-72
2022/09/23 09:37:34;;;;;;;6.13;4.35;;;;;;;;;;5116429;28;20048;-71
2022/09/23 09:40:02;;;;;;;5.32;3.97;;;;;;;;;;5116448;28;20438;-71
2022/09/23 09:42:38;;;;;;;5.47;3.70;;;;;;;;;;5115156;28;20036;-72
2022/09/23 09:45:18;;;;;;;8.65;4.03;;;;;;;;;;5116351;28;20530;-71
2022/09/23 09:47:51;;;;;;;6.43;4.10;;;;;;;;;;5116312;28;20093;-71
2022/09/23 09:50:38;;;;;;;5.95;3.97;;;;;;;;;;5116317;28;20491;-71
2022/09/23 09:53:15;;;;;;;5.47;3.72;;;;;;;;;;5116040;28;20046;-71
2022/09/23 09:55:43;;;;;;;5.88;3.80;;;;;;;;;;5114824;28;20077;-71
2022/09/23 09:58:14;;;;;;;5.88;3.92;;;;;;;;;;5116202;28;20054;-71
2022/09/23 10:00:44;;;;;;;7.63;4.10;;;;;;;;;;5116188;28;20369;-71
2022/09/23 10:03:12;;;;;;;6.32;3.70;;;;;;;;;;5115964;28;20533;-71
2022/09/23 10:05:45;;;;;;;24.33;8.70;;;;;;;;;;5116250;28;20078;-71
2022/09/23 10:08:33;;;;;;;290.35;112.28;;;;;;;;;;5115807;28;20081;-70
2022/09/23 10:11:07;;;;;;;6.40;4.30;;;;;;;;;;5115698;28;20114;-71
2022/09/23 10:13:36;;;;;;;20.08;9.57;;;;;;;;;;5115554;28;20392;-71
2022/09/23 10:16:04;;;;;;;3.88;3.47;;;;;;;;;;5115690;28;20464;-71
2022/09/23 10:18:47;;;;;;;7.78;4.47;;;;;;;;;;5115783;28;20063;-71
2022/09/23 10:21:16;;;;;;;6.03;4.00;;;;;;;;;;5115657;28;20039;-71
2022/09/23 10:24:03;;;;;;;26.42;10.63;;;;;;;;;;5115540;28;20480;-70
2022/09/23 10:26:40;;;;;;;10.10;4.30;;;;;;;;;;5113926;28;20047;-70
2022/09/23 10:29:23;;;;;;;16.75;8.23;;;;;;;;;;5115255;28;20044;-70
2022/09/23 10:32:12;;;;;;;4.18;3.35;;;;;;;;;;5115210;28;20042;-70
2022/09/23 10:34:42;;;;;;;8.68;5.05;;;;;;;;;;5115179;28;20051;-70
2022/09/23 10:37:20;;;;;;;5.00;3.83;;;;;;;;;;5114913;28;20044;-71
2022/09/23 10:48:34;;;;;;;4.90;3.83;;;;;;;;;;5115151;28;20481;-71
2022/09/23 10:51:11;;;;;;;7.28;3.80;;;;;;;;;;5115049;28;20036;-72
2022/09/23 10:53:48;;;;;;;6.05;3.83;;;;;;;;;;5114621;28;20542;-73
2022/09/23 10:56:15;;;;;;;3.50;3.17;;;;;;;;;;5114953;28;20603;-71
2022/09/23 10:58:49;;;;;;;5.15;3.17;;;;;;;;;;5115152;28;20398;-71
2022/09/23 11:01:16;;;;;;;5.03;3.08;;;;;;;;;;5114871;28;20093;-71
2022/09/23 11:04:05;;;;;;;4.55;3.47;;;;;;;;;;5113507;28;20431;-71
2022/09/23 11:06:35;;;;;;;4.20;3.00;;;;;;;;;;5114812;28;20035;-72
2022/09/23 11:09:29;;;;;;;4.53;3.40;;;;;;;;;;5114660;28;20052;-71
2022/09/23 11:12:15;;;;;;;4.75;3.05;;;;;;;;;;5111593;28;20548;-71
2022/09/23 11:14:53;;;;;;;7.80;4.53;;;;;;;;;;5114558;28;20051;-71
2022/09/23 11:17:25;;;;;;;5.10;2.70;;;;;;;;;;5114525;28;20118;-71
2022/09/23 11:19:56;;;;;;;2.90;2.47;;;;;;;;;;5114587;28;20047;-71
2022/09/23 11:22:36;;;;;;;4.60;2.78;;;;;;;;;;5114277;28;20481;-73
2022/09/23 11:25:13;;;;;;;3.45;2.65;;;;;;;;;;5114718;28;20085;-71
2022/09/23 11:27:55;;;;;;;3.50;2.90;;;;;;;;;;5114241;28;20511;-71
2022/09/23 11:30:30;;;;;;;2.40;2.20;;;;;;;;;;5114387;28;20035;-71
2022/09/23 11:33:16;;;;;;;3.30;2.17;;;;;;;;;;5113169;28;20039;-71
2022/09/23 11:35:59;;;;;;;3.17;2.30;;;;;;;;;;5114222;28;20039;-71
2022/09/23 11:38:38;;;;;;;3.95;2.40;;;;;;;;;;5114119;28;20043;-71
2022/09/23 11:41:19;;;;;;;4.85;2.33;;;;;;;;;;5113138;28;20406;-71
2022/09/23 11:43:51;;;;;;;4.13;2.63;;;;;;;;;;5112778;28;20071;-71
2022/09/23 11:46:38;;;;;;;2.80;2.33;;;;;;;;;;5113918;28;20038;-71
2022/09/23 11:49:18;;;;;;;2.55;2.10;;;;;;;;;;5112987;28;20053;-70
2022/09/23 11:51:46;;;;;;;2.65;2.03;;;;;;;;;;5113943;28;20039;-70
2022/09/23 11:54:20;;;;;;;4.15;1.95;;;;;;;;;;5113870;28;20443;-70
2022/09/23 11:56:53;;;;;;;5.87;2.30;;;;;;;;;;5113953;28;20082;-71
2022/09/23 11:59:30;;;;;;;4.32;2.20;;;;;;;;;;5113769;28;20443;-72
2022/09/23 12:02:25;;;;;;;3.38;2.40;;;;;;;;;;5113611;28;20050;-71
2022/09/23 12:05:18;;;;;;;4.15;2.63;;;;;;;;;;5113573;28;20048;-72
2022/09/23 12:07:53;;;;;;;4.53;2.53;;;;;;;;;;5113313;28;20031;-72
2022/09/23 12:10:22;;;;;;;4.93;2.50;;;;;;;;;;5113371;28;20051;-72
2022/09/23 12:13:03;;;;;;;6.32;3.40;;;;;;;;;;5113304;28;20043;-70
2022/09/23 12:15:46;;;;;;;4.97;3.60;;;;;;;;;;5113948;28;20073;-71
2022/09/23 12:18:19;;;;;;;4.43;2.15;;;;;;;;;;5112600;28;20069;-71
2022/09/23 12:21:01;;;;;;;4.60;2.83;;;;;;;;;;5113420;28;20036;-71
2022/09/23 12:23:37;;;;;;;7.13;2.10;;;;;;;;;;5113105;28;20047;-71
2022/09/23 12:26:06;;;;;;;3.25;2.10;;;;;;;;;;5112975;28;20065;-71
2022/09/23 12:28:36;;;;;;;3.50;1.90;;;;;;;;;;5113135;28;20122;-71
2022/09/23 12:31:08;;;;;;;4.10;2.55;;;;;;;;;;5113169;28;20047;-71
2022/09/23 12:33:35;;;;;;;5.18;2.35;;;;;;;;;;5113205;28;20477;-71
2022/09/23 12:36:04;;;;;;;14.02;3.80;;;;;;;;;;5113049;28;20461;-70
2022/09/23 12:38:35;;;;;;;3.38;2.45;;;;;;;;;;5113315;28;20047;-70
2022/09/23 12:41:18;;;;;;;3.20;2.10;;;;;;;;;;5112929;28;20036;-71
2022/09/23 12:43:54;;;;;;;2.78;1.80;;;;;;;;;;5112965;28;20039;-71
2022/09/23 12:46:24;;;;;;;11.48;6.20;;;;;;;;;;5113151;28;20042;-71
2022/09/23 12:48:56;;;;;;;8.35;4.28;;;;;;;;;;5112646;28;20039;-71
2022/09/23 12:51:28;;;;;;;4.90;2.28;;;;;;;;;;5112744;28;20048;-71
2022/09/23 12:53:57;;;;;;;3.00;2.38;;;;;;;;;;5113069;28;20056;-71
2022/09/23 12:56:25;;;;;;;11.90;2.80;;;;;;;;;;5113043;28;20043;-71
2022/09/23 12:58:59;;;;;;;2.83;2.20;;;;;;;;;;5112836;28;20089;-71
2022/09/23 13:01:27;;;;;;;2.65;1.85;;;;;;;;;;5116493;28;20047;-70
2022/09/23 13:07:00;;;;;;;6.95;2.80;;;;;;;;;;5096258;28;20051;-71
2022/09/23 13:09:30;;;;;;;2.88;1.92;;;;;;;;;;5096364;28;20118;-70
2022/09/23 13:12:02;;;;;;;4.15;2.83;;;;;;;;;;5096854;28;20123;-70
2022/09/23 13:14:31;;;;;;;4.13;2.30;;;;;;;;;;5096561;28;20071;-70
2022/09/23 13:16:59;;;;;;;3.90;2.28;;;;;;;;;;5095847;28;20036;-71
2022/09/23 13:19:27;;;;;;;3.35;2.08;;;;;;;;;;5079925;28;20090;-71
2022/09/23 13:21:54;;;;;;;6.35;4.05;;;;;;;;;;5074462;28;20086;-70
2022/09/23 13:24:27;;;;;;;3.22;2.63;;;;;;;;;;5086634;28;20040;-71
2022/09/23 13:27:05;;;;;;;2.92;2.38;;;;;;;;;;5084238;28;20443;-69
2022/09/23 13:29:43;;;;;;;1.40;1.30;;;;;;;;;;5095456;28;20043;-69
2022/09/23 13:32:18;;;;;;;2.13;1.48;;;;;;;;;;5095503;28;20040;-70
2022/09/23 13:34:54;;;;;;;3.88;2.22;;;;;;;;;;5090242;28;20041;-70
2022/09/23 13:37:24;;;;;;;4.32;1.70;;;;;;;;;;5087798;28;20241;-71
2022/09/23 13:39:51;;;;;;;4.80;1.83;;;;;;;;;;5093739;28;20460;-69
2022/09/23 13:42:26;;;;;;;2.20;2.00;;;;;;;;;;5095537;28;20044;-69
2022/09/23 13:44:56;;;;;;;2.67;2.30;;;;;;;;;;5090349;28;20036;-70
2022/09/23 13:47:28;;;;;;;3.28;2.05;;;;;;;;;;5093222;28;20077;-70
2022/09/23 13:49:56;;;;;;;2.60;1.60;;;;;;;;;;5094810;28;20109;-70
2022/09/23 13:52:31;;;;;;;6.72;2.15;;;;;;;;;;5084205;28;20036;-69
2022/09/23 13:54:58;;;;;;;5.78;2.58;;;;;;;;;;5091749;28;20054;-69
2022/09/23 13:57:33;;;;;;;2.75;2.20;;;;;;;;;;5094734;28;20044;-69
2022/09/23 14:00:02;;;;;;;7.35;2.45;;;;;;;;;;5093806;28;20487;-69
2022/09/23 14:02:30;;;;;;;3.50;2.33;;;;;;;;;;5095175;28;20397;-70
2022/09/23 14:04:58;;;;;;;5.13;2.50;;;;;;;;;;5094889;28;20075;-70
2022/09/23 14:07:25;;;;;;;6.78;2.30;;;;;;;;;;5094922;28;20107;-68
2022/09/23 14:09:55;;;;;;;3.08;1.95;;;;;;;;;;5094644;28;20040;-70
2022/09/23 14:12:22;;;;;;;5.32;2.53;;;;;;;;;;5091982;28;20032;-70
2022/09/23 14:14:51;;;;;;;4.30;2.30;;;;;;;;;;5087144;28;20111;-69
2022/09/23 14:17:22;;;;;;;6.18;2.30;;;;;;;;;;5088827;28;20033;-70
2022/09/23 14:19:50;;;;;;;5.75;2.85;;;;;;;;;;5074332;28;20486;-71
2022/09/23 14:22:22;;;;;;;5.32;2.40;;;;;;;;;;5074037;28;20457;-71
2022/09/23 14:24:50;;;;;;;4.95;2.47;;;;;;;;;;5074430;28;20040;-72
2022/09/23 14:27:38;;;;;;;4.95;2.10;;;;;;;;;;5076544;28;20048;-72
2022/09/23 14:30:06;;;;;;;12.85;9.25;;;;;;;;;;5094557;28;20105;-72
2022/09/23 14:32:34;;;;;;;6.15;3.30;;;;;;;;;;5094277;28;20115;-73
2022/09/23 14:35:05;;;;;;;4.38;2.88;;;;;;;;;;5094668;28;20048;-71
2022/09/23 14:40:25;;;;;;;11.13;2.53;;;;;;;;;;5094515;28;20086;-70
2022/09/23 14:43:02;;;;;;;7.28;2.10;;;;;;;;;;5094178;28;20047;-69
2022/09/23 14:45:33;;;;;;;4.43;1.85;;;;;;;;;;5094421;28;20040;-70
2022/09/23 14:48:13;;;;;;;5.60;3.00;;;;;;;;;;5094032;28;20072;-71
2022/09/23 14:50:47;;;;;;;9.52;3.33;;;;;;;;;;5093149;28;20580;-71
2022/09/23 14:53:17;;;;;;;4.35;1.70;;;;;;;;;;5094203;28;20036;-70
2022/09/23 14:55:46;;;;;;;1.60;1.50;;;;;;;;;;5093597;28;20060;-72
2022/09/23 14:58:15;;;;;;;7.70;1.95;;;;;;;;;;5093505;28;20066;-70
2022/09/23 15:00:53;;;;;;;5.28;1.90;;;;;;;;;;5078320;28;20040;-71
2022/09/23 15:03:21;;;;;;;2.83;2.00;;;;;;;;;;5080010;28;20060;-71
2022/09/23 15:05:50;;;;;;;3.35;1.45;;;;;;;;;;5073614;28;20066;-70
2022/09/23 15:08:21;;;;;;;1.80;1.17;;;;;;;;;;5105687;28;20041;-70
2022/09/23 15:10:50;;;;;;;1.40;1.30;;;;;;;;;;5085492;28;20055;-70
2022/09/23 15:13:19;;;;;;;4.30;1.40;;;;;;;;;;5080225;28;20108;-70
2022/09/23 15:15:46;;;;;;;1.95;1.60;;;;;;;;;;5087073;28;20098;-70
2022/09/23 15:18:17;;;;;;;1.98;1.55;;;;;;;;;;5079128;28;20059;-73
2022/09/23 15:20:55;;;;;;;2.55;1.60;;;;;;;;;;5093366;28;20571;-71
2022/09/23 15:23:35;;;;;;;3.38;2.00;;;;;;;;;;5092179;28;20049;-70
2022/09/23 15:26:11;;;;;;;2.80;1.92;;;;;;;;;;5087028;28;20101;-72